Time;durP1;ratioP1;P1;durP2;ratioP2;P2;SDS_P1;SDS_P2;PMS_P1;PMS_P2;Temp;Humidity;BMP_temperature;BMP_pressure;BME280_temperature;BME280_humidity;BME280_pressure;Samples;Min_cycle;Max_cycle;Signal;HPM_P1;HPM_P2
2022/01/18 00:00:18;;;;;;;18.15;6.28;;;;;;;-1.00;72.32;98002.55;1744193;82;28236;-83
2022/01/18 00:02:46;;;;;;;13.75;5.62;;;;;;;-0.94;72.11;98003.36;1747019;81;25840;-83
2022/01/18 00:05:14;;;;;;;16.65;5.72;;;;;;;-0.94;72.12;98003.36;1747363;81;26329;-83
2022/01/18 00:07:43;;;;;;;16.55;5.90;;;;;;;-0.95;72.10;98007.82;1747585;81;26235;-83
2022/01/18 00:10:11;;;;;;;19.90;5.90;;;;;;;-1.00;72.08;98009.18;1747423;82;25786;-84
2022/01/18 00:23:26;;;;;;;16.80;6.42;;;;;;;-1.05;72.01;98024.59;1747516;82;25761;-83
2022/01/18 00:25:56;;;;;;;16.50;5.55;;;;;;;-1.03;71.93;98021.34;1747438;82;28265;-83
2022/01/18 00:28:29;;;;;;;17.02;5.87;;;;;;;-0.96;71.97;98034.44;1747289;81;25281;-83
2022/01/18 00:36:21;;;;;;;13.70;4.80;;;;;;;-1.01;71.60;98038.81;1747459;81;25878;-84
2022/01/18 00:38:48;;;;;;;12.60;4.65;;;;;;;-0.99;71.57;98039.53;1744740;80;27571;-83
2022/01/18 00:41:17;;;;;;;22.22;5.22;;;;;;;-0.97;71.48;98056.64;1747369;82;25716;-83
2022/01/18 00:43:45;;;;;;;22.98;5.85;;;;;;;-0.98;71.50;98056.28;1747406;82;25835;-83
2022/01/18 00:46:13;;;;;;;19.20;5.65;;;;;;;-1.02;71.52;98054.83;1747407;81;25707;-83
2022/01/18 00:48:41;;;;;;;18.67;5.72;;;;;;;-1.02;71.59;98064.10;1747236;82;25827;-84
2022/01/18 00:51:12;;;;;;;15.43;6.12;;;;;;;-1.04;71.65;98060.25;1747472;82;27378;-84
2022/01/18 00:53:42;;;;;;;16.70;6.65;;;;;;;-1.04;71.75;98056.27;1747259;82;25738;-84
2022/01/18 00:58:36;;;;;;;19.35;5.75;;;;;;;-1.05;71.71;98063.86;1747294;82;26531;-83
2022/01/18 01:01:03;;;;;;;24.90;5.95;;;;;;;-1.01;71.71;98067.96;1747425;82;25797;-84
2022/01/18 01:03:30;;;;;;;21.12;5.70;;;;;;;-0.97;71.77;98062.78;1747392;81;27590;-83
2022/01/18 01:05:56;;;;;;;17.60;5.97;;;;;;;-0.90;71.71;98068.41;1747359;82;26539;-84
2022/01/18 01:08:23;;;;;;;17.35;6.00;;;;;;;-0.89;71.64;98056.85;1747420;82;25758;-85
2022/01/18 01:10:50;;;;;;;11.97;4.97;;;;;;;-0.93;71.63;98064.68;1747334;81;25826;-84
2022/01/18 01:13:17;;;;;;;19.87;5.05;;;;;;;-0.94;71.64;98069.62;1747393;81;25747;-83
2022/01/18 01:16:07;;;;;;;18.85;5.97;;;;;;;-0.91;71.67;98066.73;1747447;82;27565;-82
2022/01/18 01:32:28;;;;;;;17.35;5.10;;;;;;;-0.97;71.82;98087.96;1746990;81;25811;-83
2022/01/18 01:34:48;;;;;;;24.92;6.70;;;;;;;-0.97;71.92;98096.39;1744391;81;25771;-83
2022/01/18 01:41:42;;;;;;;15.85;6.28;;;;;;;-1.00;71.91;98093.98;1746366;81;26520;-83
2022/01/18 01:44:59;;;;;;;21.62;5.92;;;;;;;-0.96;72.02;98096.72;1747226;81;25743;-84
2022/01/18 01:47:34;;;;;;;18.57;6.33;;;;;;;-0.94;72.19;98104.91;1747410;82;25722;-84
2022/01/18 01:49:54;;;;;;;19.05;5.65;;;;;;;-0.90;72.14;98110.83;1745474;82;25871;-83
2022/01/18 01:52:22;;;;;;;20.05;7.15;;;;;;;-0.86;72.17;98117.58;1747413;82;26299;-84
2022/01/18 01:54:49;;;;;;;16.23;5.60;;;;;;;-0.86;72.21;98109.14;1747358;81;28276;-83
2022/01/18 01:57:16;;;;;;;20.00;6.47;;;;;;;-0.82;72.26;98107.91;1747221;82;25803;-83
2022/01/18 01:59:43;;;;;;;16.87;5.95;;;;;;;-0.84;72.19;98105.02;1744730;81;25720;-84
2022/01/18 02:02:10;;;;;;;19.87;5.92;;;;;;;-0.85;72.14;98103.36;1739435;81;25723;-84
2022/01/18 02:04:36;;;;;;;26.00;6.50;;;;;;;-0.87;72.20;98099.98;1739389;81;26362;-84
2022/01/18 02:07:04;;;;;;;16.12;6.20;;;;;;;-0.87;72.29;98096.01;1739504;81;27447;-83
2022/01/18 02:09:31;;;;;;;18.35;5.83;;;;;;;-0.88;72.26;98089.02;1739319;82;26477;-83
2022/01/18 02:12:00;;;;;;;19.17;6.08;;;;;;;-0.89;72.28;98082.03;1739477;81;25802;-83
2022/01/18 02:14:30;;;;;;;18.12;5.72;;;;;;;-0.89;72.31;98086.00;1739335;82;25811;-83
2022/01/18 02:22:27;;;;;;;20.68;5.70;;;;;;;-0.95;72.17;98086.00;1739138;81;25735;-84
2022/01/18 02:24:54;;;;;;;22.55;5.60;;;;;;;-0.97;72.25;98093.26;1739399;81;25833;-83
2022/01/18 02:27:20;;;;;;;22.17;4.87;;;;;;;-0.95;72.27;98093.11;1739436;82;25897;-83
2022/01/18 02:29:47;;;;;;;19.90;5.40;;;;;;;-1.02;72.18;98091.92;1739456;82;25750;-83
2022/01/18 02:32:13;;;;;;;19.20;5.65;;;;;;;-1.04;72.22;98085.90;1739343;82;27537;-84
2022/01/18 02:34:40;;;;;;;16.90;5.42;;;;;;;-1.05;72.24;98086.86;1739181;81;25716;-84
2022/01/18 02:37:07;;;;;;;16.93;5.47;;;;;;;-1.07;72.30;98094.09;1739419;81;25305;-83
2022/01/18 02:39:34;;;;;;;23.22;5.05;;;;;;;-1.14;72.25;98090.62;1733171;82;25767;-84
2022/01/18 02:42:05;;;;;;;17.82;4.92;;;;;;;-1.15;72.24;98088.93;1693556;83;25818;-83
2022/01/18 02:44:34;;;;;;;17.07;5.47;;;;;;;-1.21;72.23;98092.56;1693359;83;27256;-84
2022/01/18 02:47:01;;;;;;;15.35;4.45;;;;;;;-1.20;72.37;98098.19;1693414;84;25764;-84
2022/01/18 02:49:29;;;;;;;14.95;4.65;;;;;;;-1.16;72.38;98097.84;1693488;84;25839;-83
2022/01/18 02:51:58;;;;;;;15.48;4.53;;;;;;;-1.17;72.40;98100.12;1693520;83;25752;-84
2022/01/18 02:54:24;;;;;;;17.75;5.00;;;;;;;-1.20;72.31;98094.22;1693503;83;25660;-84
2022/01/18 02:56:58;;;;;;;12.45;5.12;;;;;;;-1.19;72.36;98091.93;1693478;83;27382;-84
2022/01/18 02:59:38;;;;;;;23.55;4.90;;;;;;;-1.16;72.41;98096.52;1693134;83;25703;-83
2022/01/18 03:04:51;;;;;;;12.55;4.62;;;;;;;-1.15;72.42;98084.95;1693275;84;25787;-84
2022/01/18 03:07:18;;;;;;;16.95;4.42;;;;;;;-1.13;72.41;98086.16;1693446;84;25764;-83
2022/01/18 03:09:45;;;;;;;18.57;4.87;;;;;;;-1.15;72.37;98088.93;1693504;84;28010;-83
2022/01/18 03:12:11;;;;;;;20.40;5.10;;;;;;;-1.13;72.42;98108.20;1693430;83;25964;-84
2022/01/18 03:14:39;;;;;;;18.98;5.97;;;;;;;-1.12;72.41;98116.52;1693342;82;25683;-83
2022/01/18 03:17:06;;;;;;;15.48;4.70;;;;;;;-1.11;72.43;98131.45;1693356;84;25921;-84
2022/01/18 03:19:33;;;;;;;16.02;4.35;;;;;;;-1.10;72.42;98124.34;1693563;84;25756;-84
2022/01/18 03:21:59;;;;;;;19.02;4.95;;;;;;;-1.16;72.36;98123.01;1693224;83;27509;-84
2022/01/18 03:29:38;;;;;;;15.72;4.87;;;;;;;-1.14;72.60;98131.69;1693493;84;25771;-83
2022/01/18 03:32:07;;;;;;;14.73;4.60;;;;;;;-1.09;72.63;98135.31;1693521;83;25768;-84
2022/01/18 03:34:34;;;;;;;21.17;5.33;;;;;;;-1.12;72.55;98140.36;1693409;83;27384;-84
2022/01/18 03:37:00;;;;;;;26.97;8.50;;;;;;;-1.13;72.61;98132.05;1693340;84;25830;-84
2022/01/18 03:39:27;;;;;;;20.68;6.25;;;;;;;-1.09;72.68;98130.82;1693461;83;25788;-85
2022/01/18 03:41:58;;;;;;;13.48;5.03;;;;;;;-1.05;72.59;98135.88;1693598;84;25768;-83
2022/01/18 03:44:25;;;;;;;12.73;3.67;;;;;;;-1.12;72.44;98135.55;1692937;83;25763;-83
2022/01/18 03:46:53;;;;;;;11.88;3.90;;;;;;;-1.14;72.52;98138.31;1693654;82;27418;-84
2022/01/18 03:49:23;;;;;;;13.05;4.67;;;;;;;-1.13;72.60;98135.17;1693520;82;25867;-84
2022/01/18 03:51:49;;;;;;;15.88;3.98;;;;;;;-1.12;72.62;98134.22;1693669;82;25776;-83
2022/01/18 03:54:22;;;;;;;13.18;5.67;;;;;;;-1.13;72.56;98132.05;1693629;84;25840;-84
2022/01/18 03:56:44;;;;;;;16.27;5.17;;;;;;;-1.11;72.68;98138.08;1692767;84;25843;-84
2022/01/18 03:59:11;;;;;;;16.07;4.97;;;;;;;-1.07;72.72;98139.13;1693698;83;27555;-81
2022/01/18 04:01:37;;;;;;;15.90;5.00;;;;;;;-1.09;72.67;98136.12;1693169;83;25926;-82
2022/01/18 04:04:04;;;;;;;16.10;5.30;;;;;;;-1.06;72.71;98144.80;1693438;84;25878;-82
2022/01/18 04:06:31;;;;;;;16.37;4.70;;;;;;;-1.04;72.82;98139.74;1693434;83;25842;-81
2022/01/18 04:08:58;;;;;;;17.15;5.17;;;;;;;-1.05;72.87;98139.38;1693496;84;25701;-82
2022/01/18 04:11:24;;;;;;;22.45;4.58;;;;;;;-0.97;72.89;98140.96;1693483;84;27477;-82
2022/01/18 04:13:51;;;;;;;13.15;4.35;;;;;;;-0.94;72.84;98145.15;1693396;84;25676;-83
2022/01/18 04:16:17;;;;;;;15.20;4.80;;;;;;;-0.95;72.82;98144.30;1693430;83;25727;-82
2022/01/18 04:18:54;;;;;;;14.47;4.33;;;;;;;-0.97;72.82;98147.59;1693130;84;25803;-82
2022/01/18 04:29:06;;;;;;;17.77;4.05;;;;;;;-0.97;72.80;98152.05;1693342;83;25263;-82
2022/01/18 04:31:32;;;;;;;17.75;6.15;;;;;;;-0.98;72.65;98154.33;1693590;83;26686;-81
2022/01/18 04:33:58;;;;;;;21.23;5.50;;;;;;;-1.02;72.62;98162.99;1693520;84;25293;-82
2022/01/18 04:36:27;;;;;;;17.23;5.62;;;;;;;-1.06;72.49;98168.64;1693464;84;27587;-82
2022/01/18 04:38:55;;;;;;;17.95;5.62;;;;;;;-1.09;72.57;98170.56;1693276;84;26339;-82
2022/01/18 04:41:28;;;;;;;21.33;4.95;;;;;;;-1.12;72.53;98176.61;1693314;84;25315;-82
2022/01/18 04:44:12;;;;;;;17.40;5.65;;;;;;;-1.19;72.46;98177.55;1692174;83;25906;-82
2022/01/18 04:49:07;;;;;;;21.95;5.22;;;;;;;-1.21;72.57;98188.74;1693319;84;27390;-82
2022/01/18 04:51:35;;;;;;;21.85;6.62;;;;;;;-1.25;72.59;98189.97;1693228;84;25931;-81
2022/01/18 04:54:03;;;;;;;17.52;6.08;;;;;;;-1.21;72.74;98191.91;1693261;83;25768;-82
2022/01/18 04:59:05;;;;;;;19.27;5.03;;;;;;;-1.00;72.96;98192.88;1693112;83;25772;-82
2022/01/18 05:01:33;;;;;;;16.65;5.10;;;;;;;-0.96;72.72;98193.45;1693423;82;27438;-82
2022/01/18 05:04:00;;;;;;;19.73;5.60;;;;;;;-1.01;72.51;98198.28;1693545;83;25868;-82
2022/01/18 05:06:26;;;;;;;10.82;5.00;;;;;;;-1.09;72.41;98202.36;1693603;84;25704;-81
2022/01/18 05:08:54;;;;;;;13.15;5.22;;;;;;;-1.07;72.43;98204.05;1693639;84;25823;-82
2022/01/18 05:11:24;;;;;;;15.18;5.95;;;;;;;-1.09;72.35;98203.69;1693652;82;25799;-82
2022/01/18 05:19:05;;;;;;;21.48;6.95;;;;;;;-1.17;72.26;98209.23;1693561;83;25823;-82
2022/01/18 05:21:34;;;;;;;25.70;10.82;;;;;;;-1.19;72.26;98216.45;1691814;84;25905;-84
2022/01/18 05:23:59;;;;;;;22.13;7.67;;;;;;;-1.18;72.48;98214.16;1685068;85;25764;-84
2022/01/18 05:26:28;;;;;;;25.55;8.80;;;;;;;-1.13;72.39;98218.63;1685603;85;27348;-84
2022/01/18 05:28:57;;;;;;;39.23;14.10;;;;;;;-1.14;72.26;98219.11;1685410;85;25814;-84
2022/01/18 05:31:25;;;;;;;25.88;10.95;;;;;;;-1.20;72.28;98223.55;1664162;86;25692;-83
2022/01/18 05:33:52;;;;;;;26.48;10.70;;;;;;;-1.23;72.29;98221.16;1693522;84;25815;-83
2022/01/18 05:36:18;;;;;;;30.00;11.57;;;;;;;-1.24;72.31;98224.77;1693682;84;25791;-84
2022/01/18 05:38:45;;;;;;;24.25;11.35;;;;;;;-1.26;72.25;98217.89;1693453;84;28381;-82
2022/01/18 05:41:12;;;;;;;30.12;12.18;;;;;;;-1.28;72.25;98225.95;1693328;84;25915;-83
2022/01/18 05:43:39;;;;;;;21.30;9.85;;;;;;;-1.28;72.33;98223.78;1693481;84;25811;-84
2022/01/18 05:46:05;;;;;;;45.92;14.23;;;;;;;-1.28;72.33;98222.45;1693478;84;26090;-84
2022/01/18 05:48:32;;;;;;;41.88;12.10;;;;;;;-1.34;72.32;98227.77;1693641;84;25767;-83
2022/01/18 05:51:02;;;;;;;32.10;9.80;;;;;;;-1.37;72.46;98225.34;1693504;84;28042;-83
2022/01/18 05:53:35;;;;;;;36.85;13.55;;;;;;;-1.35;72.46;98236.67;1693400;84;25872;-84
2022/01/18 05:56:04;;;;;;;19.60;6.17;;;;;;;-1.35;72.47;98243.28;1693587;84;25791;-83
2022/01/18 05:58:31;;;;;;;24.92;9.73;;;;;;;-1.35;72.38;98247.27;1693565;84;26424;-83
2022/01/18 06:00:57;;;;;;;22.87;7.78;;;;;;;-1.36;72.49;98246.89;1694542;84;25764;-83
2022/01/18 06:03:33;;;;;;;23.55;9.93;;;;;;;-1.40;72.55;98254.70;1698812;82;27254;-84
2022/01/18 06:08:43;;;;;;;28.98;9.75;;;;;;;-1.36;72.75;98265.44;1698632;84;25839;-84
2022/01/18 06:11:10;;;;;;;31.02;11.48;;;;;;;-1.36;72.69;98261.46;1698722;84;26761;-84
2022/01/18 06:13:37;;;;;;;22.62;9.28;;;;;;;-1.33;72.74;98257.74;1698802;84;25767;-83
2022/01/18 06:16:04;;;;;;;25.05;10.50;;;;;;;-1.33;72.72;98265.21;1698805;84;27469;-83
2022/01/18 06:18:31;;;;;;;24.30;9.33;;;;;;;-1.32;72.73;98267.34;1698671;83;25830;-83
2022/01/18 06:20:58;;;;;;;20.62;9.33;;;;;;;-1.32;72.73;98278.79;1698815;84;26491;-84
2022/01/18 06:23:25;;;;;;;21.70;8.65;;;;;;;-1.30;72.76;98274.70;1698596;84;25801;-83
2022/01/18 06:25:52;;;;;;;15.53;7.42;;;;;;;-1.28;72.73;98281.58;1698826;83;25777;-83
2022/01/18 06:28:18;;;;;;;23.27;7.20;;;;;;;-1.28;72.68;98294.82;1698831;83;28346;-83
2022/01/18 06:30:45;;;;;;;22.00;7.72;;;;;;;-1.30;72.71;98292.77;1698751;83;25804;-83
2022/01/18 06:33:11;;;;;;;19.02;7.45;;;;;;;-1.31;72.76;98292.40;1698781;84;25982;-83
2022/01/18 06:35:38;;;;;;;27.00;7.65;;;;;;;-1.36;72.66;98295.89;1698772;83;25776;-83
2022/01/18 06:38:05;;;;;;;21.23;7.75;;;;;;;-1.34;72.77;98288.68;1698816;84;25798;-84
2022/01/18 06:40:31;;;;;;;23.20;6.92;;;;;;;-1.36;72.71;98296.38;1698746;84;27561;-83
2022/01/18 06:42:58;;;;;;;21.12;7.62;;;;;;;-1.39;72.71;98297.44;1698688;84;25751;-83
2022/01/18 06:45:24;;;;;;;21.25;6.62;;;;;;;-1.33;72.77;98302.77;1698781;84;25689;-83
2022/01/18 06:47:51;;;;;;;20.17;8.15;;;;;;;-1.32;72.66;98292.03;1698758;84;25770;-83
2022/01/18 06:50:18;;;;;;;24.15;7.45;;;;;;;-1.30;72.58;98296.73;1698784;84;25805;-83
2022/01/18 06:52:44;;;;;;;26.35;10.93;;;;;;;-1.28;72.61;98308.06;1698739;82;27501;-83
2022/01/18 06:55:12;;;;;;;20.68;7.97;;;;;;;-1.30;72.53;98303.36;1698638;84;26443;-83
2022/01/18 06:57:39;;;;;;;19.37;7.17;;;;;;;-1.28;72.67;98305.42;1698743;82;25782;-83
2022/01/18 07:00:07;;;;;;;28.85;8.20;;;;;;;-1.28;72.54;98303.25;1698778;83;25808;-82
2022/01/18 07:02:34;;;;;;;19.37;7.10;;;;;;;-1.31;72.48;98309.61;1713759;83;25811;-82
2022/01/18 07:05:01;;;;;;;23.35;7.70;;;;;;;-1.29;72.36;98320.94;1719378;82;28391;-83
2022/01/18 07:07:27;;;;;;;19.80;6.65;;;;;;;-1.28;72.35;98326.61;1719221;83;26248;-82
2022/01/18 07:09:54;;;;;;;18.65;6.85;;;;;;;-1.30;72.21;98325.88;1719380;82;25679;-83
2022/01/18 07:12:22;;;;;;;24.52;7.62;;;;;;;-1.27;72.30;98334.92;1719422;82;25662;-81
2022/01/18 07:14:48;;;;;;;17.95;7.12;;;;;;;-1.22;72.25;98346.52;1719350;82;25720;-82
2022/01/18 07:17:15;;;;;;;18.70;6.70;;;;;;;-1.24;72.22;98354.57;1719311;83;27556;-82
2022/01/18 07:19:42;;;;;;;15.63;6.35;;;;;;;-1.25;72.26;98363.48;1719020;83;25686;-82
2022/01/18 07:22:09;;;;;;;22.45;7.35;;;;;;;-1.29;72.33;98362.00;1719060;82;25738;-82
2022/01/18 07:24:38;;;;;;;18.20;6.75;;;;;;;-1.26;72.40;98356.48;1719339;82;25914;-83
2022/01/18 07:27:07;;;;;;;20.97;8.93;;;;;;;-1.24;72.43;98363.84;1719465;82;25691;-82
2022/01/18 07:29:34;;;;;;;25.25;11.45;;;;;;;-1.19;72.36;98364.80;1719328;83;28062;-83
2022/01/18 07:32:00;;;;;;;23.25;9.25;;;;;;;-1.14;72.36;98374.11;1719244;83;26364;-83
2022/01/18 07:34:27;;;;;;;23.00;8.73;;;;;;;-1.09;72.31;98377.24;1719305;83;25746;-83
2022/01/18 07:36:54;;;;;;;20.88;8.53;;;;;;;-1.04;72.19;98382.69;1719333;82;25699;-83
2022/01/18 07:39:21;;;;;;;20.17;7.15;;;;;;;-1.06;72.18;98382.80;1719364;82;25842;-83
2022/01/18 07:41:47;;;;;;;16.87;6.40;;;;;;;-1.03;72.31;98394.50;1719365;82;27375;-83
2022/01/18 07:44:14;;;;;;;19.98;6.28;;;;;;;-0.98;72.24;98380.92;1719323;82;25796;-83
2022/01/18 07:46:41;;;;;;;18.00;6.55;;;;;;;-0.96;72.21;98376.31;1719362;83;25742;-83
2022/01/18 07:49:07;;;;;;;17.62;7.58;;;;;;;-0.92;72.15;98387.06;1719321;83;26252;-83
2022/01/18 07:51:34;;;;;;;35.52;13.00;;;;;;;-0.91;72.14;98384.78;1719356;82;26410;-83
2022/01/18 07:54:01;;;;;;;69.22;18.92;;;;;;;-0.93;72.19;98395.97;1719352;82;27438;-83
2022/01/18 07:56:27;;;;;;;21.57;8.15;;;;;;;-0.96;72.20;98404.15;1726534;80;25756;-83
2022/01/18 07:58:54;;;;;;;16.32;7.28;;;;;;;-0.93;72.17;98404.77;1754743;80;25758;-83
2022/01/18 08:01:21;;;;;;;32.15;11.73;;;;;;;-0.88;72.17;98404.44;1770307;81;25805;-83
2022/01/18 08:03:48;;;;;;;46.75;18.92;;;;;;;-0.87;72.21;98404.80;1769719;81;25776;-83
2022/01/18 08:06:14;;;;;;;21.27;8.43;;;;;;;-0.89;72.23;98408.05;1747141;81;27587;-83
2022/01/18 08:08:41;;;;;;;19.25;6.65;;;;;;;-0.83;72.45;98424.31;1738908;81;25996;-83
2022/01/18 08:11:08;;;;;;;19.98;5.85;;;;;;;-0.84;72.09;98419.12;1757751;81;25865;-82
2022/01/18 08:13:40;;;;;;;15.08;5.92;;;;;;;-0.83;72.10;98427.45;1769951;80;26587;-83
2022/01/18 08:16:46;;;;;;;16.75;5.65;;;;;;;-0.78;72.09;98427.96;1770006;80;26426;-82
2022/01/18 08:18:53;;;;;;;13.10;5.70;;;;;;;-0.74;72.03;98425.45;1764959;81;28059;-82
2022/01/18 08:21:20;;;;;;;15.30;6.42;;;;;;;-0.70;71.98;98433.52;1769833;81;26011;-82
2022/01/18 08:23:47;;;;;;;20.77;6.12;;;;;;;-0.59;72.35;98425.59;1769671;80;25766;-82
2022/01/18 08:26:14;;;;;;;14.05;5.62;;;;;;;-0.53;72.05;98430.44;1769760;81;25923;-83
2022/01/18 08:28:41;;;;;;;16.32;6.60;;;;;;;-0.52;71.77;98428.64;1770161;80;25727;-83
2022/01/18 08:31:08;;;;;;;18.95;6.92;;;;;;;-0.56;71.74;98439.95;1770110;81;27386;-83
2022/01/18 08:33:34;;;;;;;21.48;6.70;;;;;;;-0.62;71.61;98437.78;1769984;81;26518;-83
2022/01/18 08:36:04;;;;;;;22.95;6.53;;;;;;;-0.60;71.73;98434.50;1770064;81;25603;-83
2022/01/18 08:38:31;;;;;;;20.15;7.20;;;;;;;-0.55;71.80;98435.02;1770098;81;25780;-83
2022/01/18 08:40:59;;;;;;;23.02;7.30;;;;;;;-0.51;71.74;98439.13;1768875;80;25690;-83
2022/01/18 08:43:30;;;;;;;20.08;7.70;;;;;;;-0.52;71.66;98446.72;1769868;81;27554;-82
2022/01/18 08:45:56;;;;;;;16.17;6.12;;;;;;;-0.53;71.61;98445.03;1769921;79;26321;-83
2022/01/18 08:48:22;;;;;;;19.95;6.42;;;;;;;-0.53;71.64;98447.68;1770272;81;25809;-83
2022/01/18 08:50:49;;;;;;;38.23;15.08;;;;;;;-0.59;71.56;98452.11;1770143;81;26295;-83
2022/01/18 08:53:16;;;;;;;64.05;21.52;;;;;;;-0.63;71.78;98440.55;1770216;81;26412;-83
2022/01/18 08:55:42;;;;;;;23.57;9.70;;;;;;;-0.62;71.76;98440.91;1770117;80;27418;-84
2022/01/18 08:58:09;;;;;;;20.08;7.87;;;;;;;-0.56;71.83;98443.92;1770071;80;25715;-83
2022/01/18 09:00:36;;;;;;;21.73;7.70;;;;;;;-0.47;71.86;98461.78;1770028;80;26275;-84
2022/01/18 09:03:04;;;;;;;22.73;7.55;;;;;;;-0.42;71.74;98460.97;1773400;80;25734;-83
2022/01/18 09:05:31;;;;;;;21.82;7.65;;;;;;;-0.36;71.72;98466.27;1775779;79;26327;-83
2022/01/18 09:08:01;;;;;;;18.90;6.62;;;;;;;-0.30;71.74;98464.97;1775811;80;27414;-84
2022/01/18 09:10:26;;;;;;;19.17;7.15;;;;;;;-0.36;71.48;98471.57;1775226;80;26236;-84
2022/01/18 09:12:53;;;;;;;19.30;6.75;;;;;;;-0.36;71.54;98477.72;1775790;79;25848;-84
2022/01/18 09:15:20;;;;;;;21.00;7.17;;;;;;;-0.33;71.55;98482.44;1775445;80;25857;-85
2022/01/18 09:17:47;;;;;;;23.27;7.53;;;;;;;-0.39;71.59;98486.42;1775817;80;25778;-84
2022/01/18 09:20:14;;;;;;;15.98;7.78;;;;;;;-0.48;71.52;98490.59;1775740;80;28415;-84
2022/01/18 09:22:45;;;;;;;20.05;7.62;;;;;;;-0.50;71.65;98493.88;1775840;80;26063;-83
2022/01/18 09:25:19;;;;;;;23.57;7.90;;;;;;;-0.44;71.73;98490.73;1775480;79;25706;-84
2022/01/18 09:27:46;;;;;;;24.65;7.28;;;;;;;-0.44;71.65;98494.72;1775498;80;25798;-84
2022/01/18 09:30:14;;;;;;;19.52;7.30;;;;;;;-0.39;71.63;98510.30;1775890;80;25805;-84
2022/01/18 09:32:43;;;;;;;28.30;8.38;;;;;;;-0.41;71.46;98507.76;1775830;79;27394;-84
2022/01/18 09:35:12;;;;;;;18.75;6.65;;;;;;;-0.47;71.46;98505.55;1775619;79;25889;-84
2022/01/18 09:37:39;;;;;;;21.95;7.53;;;;;;;-0.45;71.49;98500.14;1775818;79;25234;-84
2022/01/18 09:40:08;;;;;;;18.77;7.70;;;;;;;-0.54;71.40;98496.38;1770461;79;25866;-84
2022/01/18 09:42:37;;;;;;;21.62;7.22;;;;;;;-0.58;71.61;98494.91;1731410;82;25788;-84
2022/01/18 09:45:07;;;;;;;26.25;7.72;;;;;;;-0.61;71.69;98500.47;1731308;82;27414;-84
2022/01/18 09:47:36;;;;;;;31.10;8.58;;;;;;;-0.64;71.63;98502.02;1731222;82;26283;-84
2022/01/18 09:50:06;;;;;;;21.02;8.05;;;;;;;-0.60;71.71;98496.83;1701783;82;25821;-84
2022/01/18 09:52:33;;;;;;;18.62;7.30;;;;;;;-0.59;71.62;98506.47;1736305;82;26680;-84
2022/01/18 09:54:59;;;;;;;27.37;8.28;;;;;;;-0.62;71.73;98513.36;1736318;82;25778;-84
2022/01/18 09:57:27;;;;;;;23.50;8.65;;;;;;;-0.67;71.67;98512.84;1701280;84;45667;-84
2022/01/18 09:59:53;;;;;;;27.32;7.97;;;;;;;-0.67;71.75;98515.49;1728939;82;25730;-84
2022/01/18 10:02:20;;;;;;;31.57;11.50;;;;;;;-0.61;71.82;98510.23;1727136;82;25873;-84
2022/01/18 10:04:48;;;;;;;50.03;15.63;;;;;;;-0.57;71.79;98511.19;1741040;82;25727;-84
2022/01/18 10:07:15;;;;;;;29.85;10.18;;;;;;;-0.57;71.77;98509.02;1721404;83;25617;-84
2022/01/18 10:09:41;;;;;;;20.43;8.85;;;;;;;-0.63;71.59;98502.38;1699033;82;28369;-84
2022/01/18 10:12:16;;;;;;;32.55;11.53;;;;;;;-0.72;71.67;98507.87;1741168;81;25895;-85
2022/01/18 10:14:56;;;;;;;61.68;19.32;;;;;;;-0.70;71.92;98502.45;1717257;83;25755;-85
2022/01/18 10:17:35;;;;;;;34.55;11.50;;;;;;;-0.63;71.76;98502.86;1751677;81;25804;-82
2022/01/18 10:20:09;;;;;;;29.75;8.95;;;;;;;-0.63;71.73;98503.70;1762425;80;26230;-84
2022/01/18 10:22:41;;;;;;;21.60;8.23;;;;;;;-0.63;71.80;98514.31;1762430;80;28010;-84
2022/01/18 10:25:25;;;;;;;27.55;7.55;;;;;;;-0.59;71.81;98519.73;1721651;81;25812;-84
2022/01/18 10:27:54;;;;;;;26.27;8.18;;;;;;;-0.62;71.76;98517.34;1722307;81;26311;-83
2022/01/18 10:30:45;;;;;;;25.62;8.40;;;;;;;-0.62;71.86;98518.66;1737030;81;26719;-84
2022/01/18 10:33:18;;;;;;;23.27;8.25;;;;;;;-0.68;71.82;98521.75;1720539;83;25810;-83
2022/01/18 10:36:14;;;;;;;20.55;7.62;;;;;;;-0.69;72.07;98526.69;1710552;83;27433;-84
2022/01/18 10:38:50;;;;;;;19.32;8.28;;;;;;;-0.70;72.11;98531.63;1711650;83;26520;-84
2022/01/18 10:41:30;;;;;;;22.13;8.08;;;;;;;-0.75;72.25;98538.61;1708245;83;25730;-84
2022/01/18 10:44:14;;;;;;;17.50;7.60;;;;;;;-0.71;72.36;98551.14;1710386;83;25754;-84
2022/01/18 10:46:46;;;;;;;22.98;9.48;;;;;;;-0.68;72.27;98555.38;1720083;83;26008;-83
2022/01/18 10:49:39;;;;;;;25.82;10.68;;;;;;;-0.60;72.31;98557.82;1711634;82;27540;-83
2022/01/18 10:52:15;;;;;;;18.92;8.65;;;;;;;-0.52;72.33;98559.92;1720703;83;25757;-83
2022/01/18 10:54:56;;;;;;;24.70;9.25;;;;;;;-0.49;72.25;98560.55;1711596;83;25701;-84
2022/01/18 10:57:33;;;;;;;21.73;8.90;;;;;;;-0.57;72.28;98562.91;1711754;83;25746;-83
2022/01/18 11:00:18;;;;;;;31.30;13.13;;;;;;;-0.55;72.37;98563.64;1711712;83;25693;-83
2022/01/18 11:02:51;;;;;;;26.82;10.43;;;;;;;-0.47;72.45;98557.28;1723571;82;27535;-84
2022/01/18 11:05:28;;;;;;;21.50;10.05;;;;;;;-0.40;72.33;98553.22;1734325;82;25831;-83
2022/01/18 11:07:56;;;;;;;21.65;10.70;;;;;;;-0.38;72.29;98558.42;1734416;82;25828;-84
2022/01/18 11:10:27;;;;;;;22.17;8.55;;;;;;;-0.31;72.28;98554.33;1733983;82;25785;-84
2022/01/18 11:13:03;;;;;;;28.32;9.68;;;;;;;-0.26;72.03;98565.45;1734106;82;25706;-83
2022/01/18 11:15:27;;;;;;;30.50;12.28;;;;;;;-0.21;72.16;98565.09;1733543;82;27623;-83
2022/01/18 11:18:03;;;;;;;26.27;10.32;;;;;;;-0.14;72.08;98564.53;1734288;82;25726;-84
2022/01/18 11:20:27;;;;;;;22.20;9.68;;;;;;;-0.09;71.90;98561.50;1732203;82;25786;-84
2022/01/18 11:22:54;;;;;;;24.15;9.05;;;;;;;-0.18;71.64;98556.42;1701867;84;26467;-84
2022/01/18 11:25:22;;;;;;;24.20;8.63;;;;;;;-0.15;71.74;98558.00;1736538;82;25662;-85
2022/01/18 11:27:56;;;;;;;19.35;7.80;;;;;;;-0.16;71.78;98557.64;1706943;82;28181;-84
2022/01/18 11:30:26;;;;;;;24.82;9.18;;;;;;;-0.17;71.65;98572.71;1706715;82;25288;-85
2022/01/18 11:32:57;;;;;;;26.80;9.28;;;;;;;-0.23;71.50;98578.95;1707049;82;25720;-85
2022/01/18 11:35:48;;;;;;;17.42;9.33;;;;;;;-0.23;71.51;98582.93;1707022;84;25807;-84
2022/01/18 11:38:26;;;;;;;24.72;9.40;;;;;;;-0.16;71.55;98582.38;1706950;84;25762;-84
2022/01/18 11:40:58;;;;;;;21.02;8.55;;;;;;;-0.11;71.47;98576.70;1707180;82;27342;-84
2022/01/18 11:43:39;;;;;;;18.52;8.35;;;;;;;-0.12;71.35;98580.34;1707057;84;34760;-85
2022/01/18 11:46:31;;;;;;;20.02;8.15;;;;;;;-0.16;71.32;98588.16;1702026;84;25878;-85
2022/01/18 11:49:11;;;;;;;19.50;8.58;;;;;;;-0.15;71.44;98585.88;1678118;84;26499;-84
2022/01/18 11:51:48;;;;;;;28.70;11.05;;;;;;;-0.17;71.44;98590.45;1672824;84;25745;-84
2022/01/18 11:54:57;;;;;;;20.72;8.65;;;;;;;-0.26;71.24;98596.45;1698878;83;28103;-85
2022/01/18 11:57:30;;;;;;;25.15;7.85;;;;;;;-0.21;71.34;98602.23;1644261;87;25868;-84
2022/01/18 12:00:08;;;;;;;20.55;7.95;;;;;;;-0.20;71.18;98601.28;1616515;88;25912;-85
2022/01/18 12:02:40;;;;;;;17.40;7.20;;;;;;;-0.30;71.16;98604.27;1658829;86;26485;-84
2022/01/18 12:05:14;;;;;;;18.85;7.72;;;;;;;-0.33;71.12;98609.78;1660543;86;25711;-83
2022/01/18 12:07:47;;;;;;;20.72;8.58;;;;;;;-0.38;70.99;98609.67;1677653;84;28329;-83
2022/01/18 12:10:38;;;;;;;24.45;13.13;;;;;;;-0.37;71.03;98610.04;1681523;84;25743;-84
2022/01/18 12:13:10;;;;;;;23.40;9.25;;;;;;;-0.33;70.97;98607.13;1688179;83;25772;-84
2022/01/18 12:15:43;;;;;;;13.70;6.85;;;;;;;-0.27;70.90;98606.70;1681113;84;26556;-85
2022/01/18 12:18:19;;;;;;;18.42;7.47;;;;;;;-0.42;70.80;98606.87;1688440;84;26632;-85
2022/01/18 12:20:53;;;;;;;20.65;8.00;;;;;;;-0.49;70.93;98604.80;1674235;84;27390;-85
2022/01/18 12:23:28;;;;;;;23.18;10.28;;;;;;;-0.47;71.18;98615.63;1684911;84;25885;-84
2022/01/18 12:26:59;;;;;;;25.80;10.55;;;;;;;-0.43;71.17;98610.95;1688180;84;25809;-84
2022/01/18 12:29:19;;;;;;;23.90;10.75;;;;;;;-0.30;71.23;98613.55;1670521;84;25840;-84
2022/01/18 12:34:44;;;;;;;44.30;18.15;;;;;;;-0.09;70.89;98617.24;1699119;84;27423;-85
2022/01/18 12:37:16;;;;;;;23.25;8.98;;;;;;;-0.08;70.60;98617.61;1727895;83;25689;-84
2022/01/18 12:40:14;;;;;;;38.92;15.43;;;;;;;-0.06;70.41;98615.69;1706771;82;25834;-83
2022/01/18 12:45:22;;;;;;;20.90;7.75;;;;;;;0.03;70.08;98620.30;1736232;81;25625;-83
2022/01/18 12:47:59;;;;;;;16.73;6.80;;;;;;;0.08;69.97;98627.45;1736169;80;27314;-85
2022/01/18 12:50:40;;;;;;;21.23;6.75;;;;;;;0.13;69.84;98627.08;1732054;82;25684;-84
2022/01/18 12:53:23;;;;;;;16.32;7.22;;;;;;;-0.02;69.54;98629.95;1731382;81;25778;-85